createdAt,value
2022-09-28T00:01:53.966Z,0.50
2022-09-28T00:04:22.827Z,0.50
2022-09-28T00:06:52.774Z,0.50
2022-09-28T00:09:21.166Z,0.40
2022-09-28T00:11:49.543Z,0.50
2022-09-28T00:14:17.972Z,0.40
2022-09-28T00:16:48.682Z,0.50
2022-09-28T00:19:17.268Z,0.47
2022-09-28T00:21:46.059Z,0.50
2022-09-28T00:24:22.980Z,0.40
2022-09-28T00:26:55.032Z,0.50
2022-09-28T00:29:24.534Z,0.50
2022-09-28T00:32:00.061Z,0.50
2022-09-28T00:34:28.673Z,0.47
2022-09-28T00:36:57.033Z,0.40
2022-09-28T00:39:27.011Z,0.50
2022-09-28T00:41:56.031Z,0.50
2022-09-28T00:44:33.729Z,0.50
2022-09-28T00:47:04.999Z,0.50
2022-09-28T00:49:34.988Z,0.50
2022-09-28T00:52:04.835Z,2.37
2022-09-28T00:54:33.516Z,0.50
2022-09-28T00:57:02.942Z,0.50
2022-09-28T00:59:31.463Z,0.50
2022-09-28T01:01:59.826Z,0.50
2022-09-28T01:04:31.011Z,0.50
2022-09-28T01:06:59.734Z,0.43
2022-09-28T01:09:29.500Z,0.50
2022-09-28T01:11:57.848Z,0.50
2022-09-28T01:14:26.415Z,0.50
2022-09-28T01:16:59.498Z,0.50
2022-09-28T01:19:39.020Z,0.50
2022-09-28T01:22:19.853Z,0.60
2022-09-28T01:24:48.912Z,0.50
2022-09-28T01:27:20.417Z,0.50
2022-09-28T01:29:50.739Z,0.50
2022-09-28T01:32:24.984Z,0.50
2022-09-28T01:34:57.382Z,0.50
2022-09-28T01:37:29.110Z,0.50
2022-09-28T01:39:58.793Z,0.50
2022-09-28T01:42:29.742Z,0.60
2022-09-28T01:45:02.603Z,0.50
2022-09-28T01:47:33.372Z,0.50
2022-09-28T01:50:05.036Z,0.50
2022-09-28T01:52:36.791Z,0.50
2022-09-28T01:55:09.352Z,0.50
2022-09-28T01:57:41.587Z,0.60
2022-09-28T02:00:11.913Z,0.53
2022-09-28T02:02:42.047Z,0.60
2022-09-28T02:05:13.781Z,0.50
2022-09-28T02:07:45.197Z,0.50
2022-09-28T02:10:16.452Z,0.50
2022-09-28T02:12:48.241Z,0.50
2022-09-28T02:15:18.924Z,0.50
2022-09-28T02:17:47.666Z,0.50
2022-09-28T02:20:16.272Z,0.50
2022-09-28T02:22:47.544Z,0.60
2022-09-28T02:25:20.598Z,0.50
2022-09-28T02:27:53.657Z,0.50
2022-09-28T02:30:22.140Z,0.50
2022-09-28T02:32:53.544Z,0.60
2022-09-28T02:35:22.666Z,0.50
2022-09-28T02:37:51.644Z,0.50
2022-09-28T02:40:20.807Z,0.50
2022-09-28T02:43:00.737Z,0.50
2022-09-28T02:45:38.876Z,0.50
2022-09-28T02:48:13.921Z,0.50
2022-09-28T02:50:45.737Z,0.50
2022-09-28T02:53:32.502Z,0.50
2022-09-28T02:56:10.664Z,0.50
2022-09-28T02:58:45.344Z,0.50
2022-09-28T03:01:23.811Z,0.50
2022-09-28T03:03:55.364Z,0.50
2022-09-28T03:06:25.291Z,0.50
2022-09-28T03:08:56.658Z,0.50
2022-09-28T03:11:27.755Z,0.50
2022-09-28T03:13:58.008Z,0.50
2022-09-28T03:16:27.621Z,0.50
2022-09-28T03:18:56.077Z,0.40
2022-09-28T03:21:25.578Z,0.50
2022-09-28T03:23:53.922Z,0.50
2022-09-28T03:26:22.622Z,0.40
2022-09-28T03:28:51.008Z,0.50
2022-09-28T03:31:20.840Z,0.50
2022-09-28T03:33:50.090Z,0.50
2022-09-28T03:36:18.522Z,0.43
2022-09-28T03:38:46.869Z,0.50
2022-09-28T03:41:15.213Z,0.50
2022-09-28T03:43:43.528Z,0.50
2022-09-28T03:46:11.929Z,0.40
2022-09-28T03:48:41.885Z,0.43
2022-09-28T03:51:12.229Z,0.50
2022-09-28T03:53:40.749Z,0.50
2022-09-28T03:56:10.257Z,0.50
2022-09-28T03:58:38.603Z,0.50
2022-09-28T04:01:08.592Z,0.50
2022-09-28T04:03:39.169Z,0.50
2022-09-28T04:06:08.838Z,0.50
2022-09-28T04:08:37.304Z,0.50
2022-09-28T04:11:05.651Z,0.40
2022-09-28T04:13:34.080Z,0.40
2022-09-28T04:16:03.074Z,0.40
2022-09-28T04:18:31.586Z,0.40
2022-09-28T04:21:03.306Z,0.50
2022-09-28T04:23:33.100Z,0.50
2022-09-28T04:26:01.577Z,0.40
2022-09-28T04:28:47.423Z,0.50
2022-09-28T04:31:18.587Z,0.43
2022-09-28T04:33:47.072Z,0.40
2022-09-28T04:36:15.494Z,0.50
2022-09-28T04:38:53.616Z,0.50
2022-09-28T04:41:22.899Z,0.40
2022-09-28T04:43:51.611Z,0.50
2022-09-28T04:46:20.232Z,0.50
2022-09-28T04:48:48.720Z,0.50
2022-09-28T04:51:17.100Z,0.50
2022-09-28T04:53:46.815Z,0.50
2022-09-28T04:56:15.798Z,0.47
2022-09-28T04:58:46.871Z,0.40
2022-09-28T05:01:18.574Z,0.40
2022-09-28T05:03:47.155Z,0.50
2022-09-28T05:06:16.260Z,0.50
2022-09-28T05:08:46.915Z,0.50
2022-09-28T05:11:19.909Z,0.50
2022-09-28T05:13:48.960Z,0.50
2022-09-28T05:16:17.744Z,0.50
2022-09-28T05:18:46.211Z,0.50
2022-09-28T05:21:15.516Z,0.60
2022-09-28T05:23:48.032Z,0.50
2022-09-28T05:26:17.765Z,0.50
2022-09-28T05:28:46.216Z,0.60
2022-09-28T05:31:14.620Z,0.50
2022-09-28T05:33:42.954Z,0.50
2022-09-28T05:36:12.251Z,0.50
2022-09-28T05:38:40.743Z,0.50
2022-09-28T05:41:09.236Z,0.50
2022-09-28T05:43:39.056Z,0.50
2022-09-28T05:46:08.243Z,0.50
2022-09-28T05:48:36.917Z,0.50
2022-09-28T05:51:05.399Z,0.50
2022-09-28T05:53:33.768Z,0.47
2022-09-28T05:56:02.241Z,0.50
2022-09-28T05:58:30.790Z,0.50
2022-09-28T06:01:00.559Z,0.50
2022-09-28T06:03:28.962Z,0.50
2022-09-28T06:05:57.399Z,0.50
2022-09-28T06:08:27.222Z,0.50
2022-09-28T06:10:55.612Z,0.50
2022-09-28T06:13:23.946Z,0.50
2022-09-28T06:15:52.347Z,0.50
2022-09-28T06:18:22.156Z,0.50
2022-09-28T06:20:50.803Z,0.47
2022-09-28T06:23:19.271Z,0.50
2022-09-28T06:25:47.651Z,0.50
2022-09-28T06:28:16.496Z,0.50
2022-09-28T06:30:47.421Z,0.47
2022-09-28T06:33:17.382Z,0.50
2022-09-28T06:35:47.960Z,0.50
2022-09-28T06:38:16.365Z,0.50
2022-09-28T06:40:44.867Z,0.50
2022-09-28T06:43:15.177Z,0.40
2022-09-28T06:45:43.980Z,0.50
2022-09-28T06:48:13.816Z,0.50
2022-09-28T06:50:43.014Z,0.50
2022-09-28T06:53:14.861Z,0.47
2022-09-28T06:55:44.440Z,0.50
2022-09-28T06:58:17.306Z,0.50
2022-09-28T07:00:47.025Z,0.40
2022-09-28T07:03:16.630Z,0.40
2022-09-28T07:05:45.731Z,0.40
2022-09-28T07:08:16.386Z,0.50
2022-09-28T07:10:45.570Z,0.40
2022-09-28T07:13:46.244Z,0.40
2022-09-28T07:16:12.348Z,0.50
2022-09-28T07:18:42.244Z,0.50
2022-09-28T07:21:21.873Z,0.50
2022-09-28T07:23:54.763Z,0.50
2022-09-28T07:26:24.596Z,0.40
2022-09-28T07:28:54.278Z,0.40
2022-09-28T07:31:25.301Z,0.40
2022-09-28T07:33:54.511Z,0.40
2022-09-28T07:36:23.073Z,0.57
2022-09-28T07:38:51.759Z,0.40
2022-09-28T07:41:32.241Z,0.40
2022-09-28T07:44:05.994Z,0.40
2022-09-28T07:46:34.922Z,0.40
2022-09-28T07:49:09.997Z,0.40
2022-09-28T07:51:43.569Z,0.40
2022-09-28T07:54:12.654Z,0.40
2022-09-28T07:56:42.591Z,0.40
2022-09-28T07:59:11.373Z,0.40
2022-09-28T08:01:39.864Z,0.40
2022-09-28T08:04:08.496Z,0.40
2022-09-28T08:06:37.202Z,0.40
2022-09-28T08:09:05.780Z,0.30
2022-09-28T08:11:34.316Z,0.40
2022-09-28T08:14:04.417Z,0.37
2022-09-28T08:16:33.238Z,0.40
2022-09-28T08:19:01.820Z,0.40
2022-09-28T08:21:47.350Z,0.40
2022-09-28T08:24:16.653Z,0.30
2022-09-28T08:26:45.658Z,0.40
2022-09-28T08:29:17.068Z,0.30
2022-09-28T08:31:45.534Z,0.30
2022-09-28T08:34:14.042Z,0.30
2022-09-28T08:36:42.603Z,0.33
2022-09-28T08:39:11.209Z,0.30
2022-09-28T08:41:45.689Z,0.30
2022-09-28T08:44:23.805Z,0.30
2022-09-28T08:46:53.981Z,0.30
2022-09-28T08:49:26.731Z,0.40
2022-09-28T08:51:59.436Z,0.30
2022-09-28T08:54:31.571Z,0.30
2022-09-28T08:57:03.183Z,0.30
2022-09-28T08:59:40.302Z,0.30
2022-09-28T09:02:15.726Z,0.40
2022-09-28T09:04:44.343Z,0.30
2022-09-28T09:07:21.067Z,0.30
2022-09-28T09:09:57.410Z,0.37
2022-09-28T09:12:50.265Z,0.30
2022-09-28T09:15:28.584Z,0.30
2022-09-28T09:18:04.551Z,0.30
2022-09-28T09:20:37.686Z,0.70
2022-09-28T09:23:10.574Z,0.30
2022-09-28T09:25:42.798Z,0.30
2022-09-28T09:28:29.137Z,0.30
2022-09-28T09:31:07.095Z,0.40
2022-09-28T09:33:45.782Z,0.30
2022-09-28T09:36:19.619Z,0.30
2022-09-28T09:38:51.844Z,0.30
2022-09-28T09:41:27.772Z,0.30
2022-09-28T09:44:14.206Z,0.30
2022-09-28T09:46:48.324Z,0.30
2022-09-28T09:49:18.214Z,0.30
2022-09-28T09:51:49.628Z,0.30
2022-09-28T09:54:25.277Z,0.30
2022-09-28T09:56:56.717Z,0.30
2022-09-28T09:59:27.891Z,0.30
2022-09-28T10:01:58.107Z,0.30
2022-09-28T10:04:34.514Z,0.30
2022-09-28T10:07:04.956Z,0.30
2022-09-28T10:09:36.729Z,0.30
2022-09-28T10:12:05.299Z,0.77
2022-09-28T10:14:33.887Z,0.30
2022-09-28T10:17:04.275Z,1.13
2022-09-28T10:19:33.922Z,0.60
2022-09-28T10:22:05.113Z,0.73
2022-09-28T10:24:35.742Z,3.30
2022-09-28T10:27:13.718Z,0.30
2022-09-28T10:29:47.843Z,0.60
2022-09-28T10:32:21.884Z,0.70
2022-09-28T10:34:51.193Z,0.40
2022-09-28T10:37:20.349Z,0.57
2022-09-28T10:39:51.991Z,2.20
2022-09-28T10:42:27.965Z,0.80
2022-09-28T10:44:58.219Z,0.57
2022-09-28T10:47:32.895Z,1.13
2022-09-28T10:50:01.721Z,0.57
2022-09-28T10:52:35.014Z,0.73
2022-09-28T10:55:06.258Z,1.03
2022-09-28T10:57:36.462Z,0.60
2022-09-28T11:00:06.929Z,0.90
2022-09-28T11:02:37.720Z,0.80
2022-09-28T11:05:07.516Z,0.70
2022-09-28T11:07:58.345Z,1.60
2022-09-28T11:10:29.193Z,0.67
2022-09-28T11:12:58.326Z,0.90
2022-09-28T11:15:30.591Z,0.70
2022-09-28T11:18:22.468Z,0.50
2022-09-28T11:20:51.231Z,0.30
2022-09-28T11:23:23.175Z,0.87
2022-09-28T11:25:59.198Z,1.03
2022-09-28T11:28:33.756Z,0.70
2022-09-28T11:31:06.392Z,0.73
2022-09-28T11:33:38.992Z,0.70
2022-09-28T11:36:16.972Z,0.50
2022-09-28T11:38:50.097Z,0.67
2022-09-28T11:41:23.392Z,0.83
2022-09-28T11:44:06.986Z,0.83
2022-09-28T11:46:42.359Z,1.20
2022-09-28T11:49:17.598Z,0.73
2022-09-28T11:51:47.490Z,0.40
2022-09-28T11:54:19.890Z,0.40
2022-09-28T11:56:50.275Z,0.67
2022-09-28T11:59:22.436Z,0.57
2022-09-28T12:01:51.941Z,0.40
2022-09-28T12:04:23.542Z,0.73
2022-09-28T12:06:55.143Z,0.50
2022-09-28T12:09:27.046Z,0.90
2022-09-28T12:11:58.144Z,1.87
2022-09-28T12:14:29.055Z,0.60
2022-09-28T12:17:06.838Z,0.63
2022-09-28T12:19:40.856Z,0.40
2022-09-28T12:22:13.899Z,0.50
2022-09-28T12:24:44.264Z,0.67
2022-09-28T12:27:15.654Z,0.70
2022-09-28T12:29:47.626Z,0.60
2022-09-28T12:32:19.469Z,0.53
2022-09-28T12:34:53.336Z,0.80
2022-09-28T12:37:29.829Z,0.60
2022-09-28T12:40:06.655Z,0.63
2022-09-28T12:42:47.166Z,0.70
2022-09-28T12:45:38.448Z,1.70
2022-09-28T12:48:27.912Z,0.40
2022-09-28T12:51:04.652Z,0.80
2022-09-28T12:53:47.975Z,0.60
2022-09-28T12:56:21.695Z,0.40
2022-09-28T12:59:00.982Z,0.53
2022-09-28T13:01:48.238Z,0.63
2022-09-28T13:04:29.187Z,0.67
2022-09-28T13:07:02.973Z,0.67
2022-09-28T13:09:36.466Z,0.73
2022-09-28T13:12:09.772Z,0.60
2022-09-28T13:15:02.102Z,0.40
2022-09-28T13:17:39.819Z,0.63
2022-09-28T13:20:16.483Z,0.90
2022-09-28T13:22:51.713Z,0.50
2022-09-28T13:25:22.536Z,0.43
2022-09-28T13:27:56.359Z,0.80
2022-09-28T13:30:25.827Z,0.70
2022-09-28T13:32:56.284Z,0.50
2022-09-28T13:35:25.278Z,0.70
2022-09-28T13:38:08.656Z,0.87
2022-09-28T13:40:52.068Z,0.50
2022-09-28T13:43:25.610Z,0.60
2022-09-28T13:45:59.866Z,0.97
2022-09-28T13:48:39.636Z,0.63
2022-09-28T13:51:17.380Z,0.50
2022-09-28T13:53:56.891Z,1.10
2022-09-28T13:56:32.185Z,0.40
2022-09-28T13:59:03.684Z,0.57
2022-09-28T14:01:33.965Z,0.80
2022-09-28T14:04:13.512Z,0.70
2022-09-28T14:06:48.766Z,0.57
2022-09-28T14:09:42.999Z,0.40
2022-09-28T14:12:32.115Z,0.73
2022-09-28T14:15:02.543Z,0.50
2022-09-28T14:17:50.143Z,0.50
2022-09-28T14:20:20.990Z,0.60
2022-09-28T14:23:05.425Z,0.60
2022-09-28T14:25:36.066Z,0.40
2022-09-28T14:28:09.421Z,1.03
2022-09-28T14:30:49.655Z,0.60
2022-09-28T14:33:19.147Z,0.60
2022-09-28T14:35:49.647Z,0.57
2022-09-28T14:38:37.296Z,0.60
2022-09-28T14:41:13.849Z,0.50
2022-09-28T14:44:02.579Z,0.80
2022-09-28T14:46:40.558Z,0.50
2022-09-28T14:52:37.385Z,0.70
2022-09-28T14:55:13.173Z,0.67
2022-09-28T14:57:46.323Z,0.53
2022-09-28T15:00:20.443Z,0.63
2022-09-28T15:02:52.787Z,1.03
2022-09-28T15:05:25.259Z,0.50
2022-09-28T15:07:57.671Z,0.60
2022-09-28T15:10:31.285Z,0.50
2022-09-28T15:13:02.592Z,0.40
2022-09-28T15:15:33.575Z,0.60
2022-09-28T15:18:25.155Z,0.40
2022-09-28T15:20:55.896Z,0.40
2022-09-28T15:23:29.140Z,0.57
2022-09-28T15:25:57.815Z,1.03
2022-09-28T15:28:26.421Z,0.60
2022-09-28T15:31:00.739Z,0.40
2022-09-28T15:33:47.614Z,0.43
2022-09-28T15:36:20.680Z,0.40
2022-09-28T15:38:55.621Z,0.40
2022-09-28T15:41:26.533Z,0.40
2022-09-28T15:44:08.451Z,0.40
2022-09-28T15:46:38.025Z,0.40
2022-09-28T15:49:07.652Z,0.53
2022-09-28T15:51:47.363Z,0.50
2022-09-28T15:54:19.426Z,0.80
2022-09-28T15:56:57.750Z,0.50
2022-09-28T15:59:28.295Z,0.43
2022-09-28T16:02:20.825Z,0.77
2022-09-28T16:04:51.783Z,0.40
2022-09-28T16:07:24.336Z,0.50
2022-09-28T16:09:59.724Z,0.40
2022-09-28T16:12:31.215Z,0.50
2022-09-28T16:15:00.883Z,0.50
2022-09-28T16:17:32.457Z,0.60
2022-09-28T16:20:01.543Z,1.17
2022-09-28T16:22:32.762Z,0.50
2022-09-28T16:25:02.150Z,0.70
2022-09-28T16:27:31.961Z,1.13
2022-09-28T16:30:16.031Z,0.40
2022-09-28T16:32:49.536Z,0.40
2022-09-28T16:35:28.345Z,0.40
2022-09-28T16:38:11.207Z,0.40
2022-09-28T16:40:43.348Z,0.70
2022-09-28T16:43:18.966Z,0.80
2022-09-28T16:45:47.493Z,0.50
2022-09-28T16:48:21.684Z,0.40
2022-09-28T16:50:50.035Z,0.90
2022-09-28T16:53:37.728Z,1.10
2022-09-28T16:56:06.459Z,1.00
2022-09-28T16:58:36.567Z,0.80
2022-09-28T17:01:05.234Z,0.60
2022-09-28T17:03:33.785Z,0.77
2022-09-28T17:06:04.244Z,0.70
2022-09-28T17:08:35.486Z,0.50
2022-09-28T17:11:24.199Z,0.50
2022-09-28T17:13:56.686Z,1.47
2022-09-28T17:16:49.375Z,1.13
2022-09-28T17:19:19.451Z,1.10
2022-09-28T17:21:48.109Z,1.40
2022-09-28T17:24:17.822Z,0.90
2022-09-28T17:26:47.008Z,1.13
2022-09-28T17:29:16.599Z,1.30
2022-09-28T17:31:45.619Z,1.07
2022-09-28T17:34:15.226Z,1.13
2022-09-28T17:36:44.043Z,0.93
2022-09-28T17:39:13.503Z,1.60
2022-09-28T17:41:43.258Z,1.20
2022-09-28T17:44:14.727Z,1.07
2022-09-28T17:46:46.012Z,0.90
2022-09-28T17:49:14.503Z,1.00
2022-09-28T17:51:42.914Z,1.07
2022-09-28T17:54:12.885Z,1.30
2022-09-28T17:56:43.387Z,1.30
2022-09-28T17:59:14.354Z,1.67
2022-09-28T18:01:42.867Z,0.80
2022-09-28T18:04:22.988Z,0.77
2022-09-28T18:06:56.255Z,2.40
2022-09-28T18:09:25.357Z,0.50
2022-09-28T18:12:00.953Z,0.60
2022-09-28T18:14:30.100Z,1.53
2022-09-28T18:16:58.498Z,1.43
2022-09-28T18:19:31.703Z,1.47
2022-09-28T18:22:01.421Z,1.33
2022-09-28T18:24:32.361Z,1.67
2022-09-28T18:27:02.148Z,1.70
2022-09-28T18:29:33.263Z,1.10
2022-09-28T18:32:02.225Z,1.60
2022-09-28T18:34:30.592Z,0.93
2022-09-28T18:36:58.946Z,1.23
2022-09-28T18:39:27.543Z,1.37
2022-09-28T18:41:55.947Z,1.90
2022-09-28T18:44:25.777Z,1.57
2022-09-28T18:46:54.463Z,1.77
2022-09-28T18:49:23.095Z,1.53
2022-09-28T18:51:51.455Z,1.70
2022-09-28T18:54:19.763Z,1.53
2022-09-28T18:56:48.195Z,1.03
2022-09-28T18:59:16.633Z,1.63
2022-09-28T19:01:46.359Z,2.10
2022-09-28T19:04:14.830Z,1.87
2022-09-28T19:06:44.691Z,1.00
2022-09-28T19:09:13.441Z,2.13
2022-09-28T19:11:42.151Z,0.93
2022-09-28T19:14:11.547Z,2.30
2022-09-28T19:16:39.895Z,1.50
2022-09-28T19:19:12.295Z,0.60
2022-09-28T19:21:40.783Z,0.50
2022-09-28T19:24:09.191Z,1.30
2022-09-28T19:26:37.563Z,1.07
2022-09-28T19:29:05.944Z,1.87
2022-09-28T19:31:34.761Z,1.60
2022-09-28T19:34:03.240Z,1.07
2022-09-28T19:36:32.968Z,0.80
2022-09-28T19:39:03.203Z,0.60
2022-09-28T19:41:44.394Z,0.53
2022-09-28T19:44:15.774Z,0.93
2022-09-28T19:46:44.316Z,1.37
2022-09-28T19:49:13.597Z,0.70
2022-09-28T19:52:08.502Z,0.70
2022-09-28T19:54:36.397Z,0.90
2022-09-28T19:57:08.939Z,1.20
2022-09-28T19:59:38.130Z,0.80
2022-09-28T20:02:07.174Z,0.60
2022-09-28T20:04:35.484Z,0.70
2022-09-28T20:07:05.679Z,1.10
2022-09-28T20:09:34.177Z,1.47
2022-09-28T20:12:02.643Z,1.53
2022-09-28T20:14:34.260Z,0.70
2022-09-28T20:17:06.468Z,1.07
2022-09-28T20:19:35.093Z,1.10
2022-09-28T20:22:04.837Z,1.23
2022-09-28T20:24:33.314Z,1.57
2022-09-28T20:27:02.543Z,1.37
2022-09-28T20:29:33.121Z,1.40
2022-09-28T20:32:01.638Z,2.20
2022-09-28T20:34:29.939Z,1.63
2022-09-28T20:36:58.321Z,1.73
2022-09-28T20:39:28.008Z,1.73
2022-09-28T20:41:57.407Z,1.87
2022-09-28T20:44:25.900Z,2.23
2022-09-28T20:46:54.314Z,1.50
2022-09-28T20:49:22.686Z,1.20
2022-09-28T20:51:51.050Z,1.63
2022-09-28T20:54:19.514Z,1.70
2022-09-28T20:56:49.369Z,2.00
2022-09-28T20:59:17.681Z,1.70
2022-09-28T21:01:46.146Z,2.40
2022-09-28T21:04:14.599Z,1.90
2022-09-28T21:06:43.865Z,2.17
2022-09-28T21:09:12.620Z,0.60
2022-09-28T21:11:41.600Z,0.70
2022-09-28T21:14:11.478Z,1.73
2022-09-28T21:16:40.116Z,0.60
2022-09-28T21:19:08.475Z,2.13
2022-09-28T21:21:36.863Z,1.27
2022-09-28T21:24:05.373Z,1.40
2022-09-28T21:26:35.063Z,0.60
2022-09-28T21:29:04.380Z,1.03
2022-09-28T21:31:34.717Z,1.63
2022-09-28T21:34:04.594Z,1.43
2022-09-28T21:36:32.948Z,0.73
2022-09-28T21:39:01.250Z,0.70
2022-09-28T21:41:29.758Z,0.70
2022-09-28T21:43:58.089Z,0.60
2022-09-28T21:46:26.800Z,0.70
2022-09-28T21:48:56.583Z,0.70
2022-09-28T21:51:24.944Z,0.70
2022-09-28T21:53:54.084Z,0.60
2022-09-28T21:56:23.042Z,0.60
2022-09-28T21:58:51.540Z,0.80
2022-09-28T22:01:20.779Z,1.80
2022-09-28T22:03:50.439Z,2.73
2022-09-28T22:06:20.847Z,2.40
2022-09-28T22:08:49.756Z,2.90
2022-09-28T22:11:19.538Z,2.87
2022-09-28T22:13:48.594Z,2.10
2022-09-28T22:16:17.638Z,3.20
2022-09-28T22:18:46.540Z,2.73
2022-09-28T22:21:16.090Z,2.70
2022-09-28T22:23:46.012Z,1.53
2022-09-28T22:26:17.908Z,1.73
2022-09-28T22:28:47.868Z,1.73
2022-09-28T22:31:16.873Z,1.53
2022-09-28T22:33:45.284Z,0.80
2022-09-28T22:36:15.583Z,2.20
2022-09-28T22:38:44.264Z,2.30
2022-09-28T22:41:14.561Z,2.60
2022-09-28T22:43:43.423Z,2.40
2022-09-28T22:46:13.055Z,1.13
2022-09-28T22:48:42.305Z,1.00
2022-09-28T22:51:10.790Z,1.47
2022-09-28T22:53:39.120Z,0.90
2022-09-28T22:56:08.881Z,0.60
2022-09-28T22:58:39.417Z,0.77
2022-09-28T23:01:08.686Z,1.10
2022-09-28T23:03:37.074Z,2.70
2022-09-28T23:06:05.453Z,3.17
2022-09-28T23:08:34.538Z,3.30
2022-09-28T23:11:03.480Z,3.10
2022-09-28T23:13:32.118Z,2.60
2022-09-28T23:16:02.715Z,2.90
2022-09-28T23:18:31.761Z,3.20
2022-09-28T23:21:00.919Z,3.00
2022-09-28T23:23:29.387Z,1.10
2022-09-28T23:25:58.247Z,3.60
2022-09-28T23:28:27.781Z,4.40
2022-09-28T23:30:56.367Z,4.00
2022-09-28T23:33:26.091Z,3.50
2022-09-28T23:35:54.401Z,3.40
2022-09-28T23:38:22.754Z,4.47
2022-09-28T23:40:51.204Z,2.93
2022-09-28T23:43:19.644Z,1.20
2022-09-28T23:45:48.013Z,3.70
2022-09-28T23:48:16.375Z,2.50
2022-09-28T23:50:46.312Z,3.53
2022-09-28T23:53:15.306Z,0.60
2022-09-28T23:55:44.071Z,1.23
2022-09-28T23:58:12.682Z,0.60
